Terminal Aerodrome Forecast
Issued by NWS Quad Cities IA IL

Home | Current Version | Previous Version | Text Only | Print | Product List | Glossary On
Versions: 1 2 3 4 5 6 7 8 9 10 11 12 13 14 15 16
000
FTUS43 KDVN 021235 AAA
TAFMLI
TAF AMD
KMLI 021235Z 0213/0312 04007KT P6SM FEW010 OVC035
     FM021600 05008KT P6SM SCT028 OVC035
     FM022000 06007KT P6SM VCSH SCT028 BKN035
     FM030000 06004KT P6SM BKN035
     FM030600 VRB03KT P6SM SCT035=

USA.gov is the U.S. government's official web portal to all federal, state and local government web resources and services.